createdAt,value
2018-08-13T00:00:48.789Z,100307.06
2018-08-13T00:03:17.732Z,100298.55
2018-08-13T00:05:46.299Z,100298.96
2018-08-13T00:08:15.266Z,100302.53
2018-08-13T00:10:43.496Z,100295.55
2018-08-13T00:13:11.703Z,100290.86
2018-08-13T00:15:39.950Z,100291.38
2018-08-13T00:18:09.080Z,100285.37
2018-08-13T00:20:37.684Z,100285.89
2018-08-13T00:23:06.040Z,100287.23
2018-08-13T00:25:34.555Z,100283.27
2018-08-13T00:28:02.760Z,100283.70
2018-08-13T00:30:30.956Z,100282.51
2018-08-13T00:32:59.182Z,100278.98
2018-08-13T00:35:27.380Z,100275.63
2018-08-13T00:37:55.591Z,100275.65
2018-08-13T00:40:23.924Z,100278.20
2018-08-13T00:42:52.136Z,100270.02
2018-08-13T00:45:20.332Z,100260.11
2018-08-13T00:47:48.577Z,100259.20
2018-08-13T00:50:16.916Z,100264.02
2018-08-13T00:52:45.463Z,100253.58
2018-08-13T00:55:14.739Z,100254.75
2018-08-13T00:57:42.996Z,100248.29
2018-08-13T01:00:16.851Z,100245.29
2018-08-13T01:02:45.640Z,100243.17
2018-08-13T01:05:14.752Z,100239.78
2018-08-13T01:07:43.087Z,100240.23
2018-08-13T01:10:13.192Z,100241.09
2018-08-13T01:12:41.704Z,100235.48
2018-08-13T01:15:11.589Z,100233.36
2018-08-13T01:17:41.019Z,100234.73
2018-08-13T01:20:11.138Z,100230.07
2018-08-13T01:22:39.710Z,100222.88
2018-08-13T01:25:10.119Z,100218.69
2018-08-13T01:27:38.568Z,100215.42
2018-08-13T01:30:07.131Z,100217.19
2018-08-13T01:32:35.339Z,100212.53
2018-08-13T01:35:03.633Z,100203.59
2018-08-13T01:37:31.843Z,100202.59
2018-08-13T01:40:00.045Z,100196.39
2018-08-13T01:42:28.267Z,100197.36
2018-08-13T01:44:56.476Z,100193.13
2018-08-13T01:47:24.696Z,100198.30
2018-08-13T01:49:52.959Z,100193.13
2018-08-13T01:52:21.155Z,100192.62
2018-08-13T01:54:49.383Z,100197.28
2018-08-13T01:57:17.575Z,100198.20
2018-08-13T01:59:45.787Z,100200.80
2018-08-13T02:02:14.459Z,100200.38
2018-08-13T02:04:43.148Z,100196.86
2018-08-13T02:07:11.539Z,100197.42
2018-08-13T02:09:41.136Z,100190.63
2018-08-13T02:12:10.275Z,100187.64
2018-08-13T02:14:38.491Z,100187.64
2018-08-13T02:17:06.796Z,100179.90
2018-08-13T02:19:35.039Z,100172.80
2018-08-13T02:22:03.248Z,100173.86
2018-08-13T02:24:31.479Z,100164.12
2018-08-13T02:26:59.716Z,100160.30
2018-08-13T02:29:28.252Z,100160.86
2018-08-13T02:31:57.020Z,100161.80
2018-08-13T02:34:25.300Z,100165.18
2018-08-13T02:36:53.503Z,100155.60
2018-08-13T02:39:21.721Z,100161.12
2018-08-13T02:41:49.908Z,100162.70
2018-08-13T02:44:18.099Z,100157.89
2018-08-13T02:46:46.332Z,100154.58
2018-08-13T02:49:14.540Z,100153.67
2018-08-13T02:51:42.788Z,100152.73
2018-08-13T02:54:10.980Z,100163.45
2018-08-13T02:56:39.200Z,100167.73
2018-08-13T02:59:07.403Z,100162.58
2018-08-13T03:01:35.652Z,100158.73
2018-08-13T03:04:03.887Z,100150.28
2018-08-13T03:06:32.140Z,100148.47
2018-08-13T03:09:00.347Z,100145.92
2018-08-13T03:11:28.564Z,100149.68
2018-08-13T03:13:56.760Z,100152.18
2018-08-13T03:16:24.988Z,100150.48
2018-08-13T03:18:53.527Z,100147.97
2018-08-13T03:21:21.762Z,100146.27
2018-08-13T03:23:49.972Z,100141.56
2018-08-13T03:26:18.193Z,100134.67
2018-08-13T03:28:46.387Z,100133.98
2018-08-13T03:31:14.611Z,100140.77
2018-08-13T03:33:42.812Z,100134.30
2018-08-13T03:36:11.024Z,100128.66
2018-08-13T03:38:40.207Z,100141.09
2018-08-13T03:41:08.416Z,100128.27
2018-08-13T03:43:36.623Z,100130.86
2018-08-13T03:46:04.836Z,100123.98
2018-08-13T03:48:33.121Z,100119.62
2018-08-13T03:51:01.361Z,100112.40
2018-08-13T03:53:29.612Z,100111.08
2018-08-13T03:55:57.820Z,100111.84
2018-08-13T03:58:26.060Z,100116.05
2018-08-13T04:00:54.272Z,100112.95
2018-08-13T04:03:22.509Z,100112.02
2018-08-13T04:05:50.728Z,100107.73
2018-08-13T04:08:18.958Z,100105.21
2018-08-13T04:10:47.200Z,100106.85
2018-08-13T04:13:15.425Z,100108.40
2018-08-13T04:15:43.620Z,100102.66
2018-08-13T04:18:11.844Z,100104.37
2018-08-13T04:20:40.040Z,100107.44
2018-08-13T04:23:08.276Z,100103.14
2018-08-13T04:25:36.502Z,100098.86
2018-08-13T04:28:04.768Z,100089.58
2018-08-13T04:30:32.976Z,100085.90
2018-08-13T04:33:01.218Z,100086.84
2018-08-13T04:35:31.080Z,100091.04
2018-08-13T04:37:59.311Z,100089.75
2018-08-13T04:40:27.706Z,100099.63
2018-08-13T04:42:55.941Z,100095.24
2018-08-13T04:45:24.188Z,100100.33
2018-08-13T04:47:53.657Z,100094.27
2018-08-13T04:50:21.960Z,100087.50
2018-08-13T04:52:50.276Z,100079.02
2018-08-13T04:55:19.279Z,100079.41
2018-08-13T04:57:47.512Z,100074.11
2018-08-13T05:00:15.790Z,100075.28
2018-08-13T05:02:44.000Z,100073.95
2018-08-13T05:05:12.668Z,100076.51
2018-08-13T05:07:40.994Z,100067.29
2018-08-13T05:10:10.652Z,100062.02
2018-08-13T05:12:39.464Z,100061.25
2018-08-13T05:15:08.931Z,100063.80
2018-08-13T05:17:37.176Z,100066.38
2018-08-13T05:20:05.780Z,100065.56
2018-08-13T05:22:34.017Z,100062.39
2018-08-13T05:25:02.552Z,100065.88
2018-08-13T05:27:30.788Z,100066.86
2018-08-13T05:29:59.078Z,100075.78
2018-08-13T05:32:27.267Z,100070.73
2018-08-13T05:34:55.492Z,100070.28
2018-08-13T05:37:23.764Z,100068.63
2018-08-13T05:39:52.006Z,100073.36
2018-08-13T05:42:20.237Z,100069.30
2018-08-13T05:44:48.458Z,100066.60
2018-08-13T05:47:16.692Z,100062.55
2018-08-13T05:49:44.919Z,100051.20
2018-08-13T05:52:13.157Z,100045.76
2018-08-13T05:54:41.367Z,100049.36
2018-08-13T05:57:09.628Z,100055.34
2018-08-13T05:59:37.838Z,100062.31
2018-08-13T06:02:06.144Z,100054.47
2018-08-13T06:04:34.361Z,100049.48
2018-08-13T06:07:02.583Z,100045.76
2018-08-13T06:09:30.789Z,100036.77
2018-08-13T06:11:59.025Z,100044.55
2018-08-13T06:14:27.269Z,100037.46
2018-08-13T06:16:55.522Z,100033.41
2018-08-13T06:19:23.734Z,100026.60
2018-08-13T06:21:51.964Z,100020.22
2018-08-13T06:24:20.258Z,100021.59
2018-08-13T06:26:48.457Z,100028.91
2018-08-13T06:29:16.666Z,100034.69
2018-08-13T06:31:44.896Z,100036.61
2018-08-13T06:34:14.068Z,100043.25
2018-08-13T06:36:42.524Z,100035.14
2018-08-13T06:39:11.632Z,100039.61
2018-08-13T06:41:39.866Z,100045.45
2018-08-13T06:44:08.064Z,100047.68
2018-08-13T06:46:37.261Z,100037.07
2018-08-13T06:49:05.944Z,100029.85
2018-08-13T06:51:34.545Z,100028.28
2018-08-13T06:54:02.792Z,100026.13
2018-08-13T06:56:31.012Z,100018.73
2018-08-13T06:58:59.211Z,100017.84
2018-08-13T07:01:27.443Z,100020.22
2018-08-13T07:03:55.656Z,100020.08
2018-08-13T07:06:23.888Z,100017.12
2018-08-13T07:08:52.113Z,100026.62
2018-08-13T07:11:20.326Z,100023.15
2018-08-13T07:13:48.601Z,100023.60
2018-08-13T07:16:16.804Z,100026.81
2018-08-13T07:18:45.033Z,100033.37
2018-08-13T07:21:13.240Z,100022.90
2018-08-13T07:23:41.456Z,100031.72
2018-08-13T07:26:09.660Z,100018.75
2018-08-13T07:28:37.892Z,100023.92
2018-08-13T07:31:06.144Z,100020.34
2018-08-13T07:33:34.405Z,100038.67
2018-08-13T07:36:02.677Z,100042.17
2018-08-13T07:38:30.913Z,100045.27
2018-08-13T07:40:59.112Z,100057.64
2018-08-13T07:43:27.359Z,100053.06
2018-08-13T07:45:55.575Z,100044.31
2018-08-13T07:48:23.840Z,100056.84
2018-08-13T07:50:52.048Z,100059.08
2018-08-13T07:53:20.281Z,100066.35
2018-08-13T07:55:48.468Z,100065.20
2018-08-13T07:58:16.692Z,100072.68
2018-08-13T08:00:44.883Z,100061.53
2018-08-13T08:03:13.097Z,100065.95
2018-08-13T08:05:41.315Z,100065.91
2018-08-13T08:08:09.550Z,100069.22
2018-08-13T08:10:37.746Z,100054.00
2018-08-13T08:13:06.389Z,100063.35
2018-08-13T08:15:34.623Z,100066.22
2018-08-13T08:18:02.847Z,100068.50
2018-08-13T08:20:31.048Z,100068.75
2018-08-13T08:22:59.287Z,100085.07
2018-08-13T08:25:27.495Z,100091.33
2018-08-13T08:27:55.715Z,100091.68
2018-08-13T08:30:23.930Z,100092.39
2018-08-13T08:32:52.167Z,100091.09
2018-08-13T08:35:20.378Z,100095.64
2018-08-13T08:37:48.632Z,100101.36
2018-08-13T08:40:19.004Z,100099.98
2018-08-13T08:42:47.707Z,100098.83
2018-08-13T08:45:21.505Z,100105.36
2018-08-13T08:47:49.976Z,100108.14
2018-08-13T08:50:18.176Z,100109.41
2018-08-13T08:52:47.259Z,100113.09
2018-08-13T08:55:16.536Z,100115.30
2018-08-13T08:57:45.068Z,100117.41
2018-08-13T09:00:17.900Z,100115.95
2018-08-13T09:02:46.289Z,100121.33
2018-08-13T09:05:15.783Z,100120.42
2018-08-13T09:07:44.680Z,100124.10
2018-08-13T09:10:12.925Z,100120.03
2018-08-13T09:12:41.175Z,100119.12
2018-08-13T09:15:11.364Z,100113.43
2018-08-13T09:17:50.924Z,100106.03
2018-08-13T09:20:30.370Z,100088.34
2018-08-13T09:23:09.889Z,100101.78
2018-08-13T09:25:49.495Z,100108.68
2018-08-13T09:28:29.164Z,100119.45
2018-08-13T09:31:08.925Z,100122.13
2018-08-13T09:33:48.636Z,100115.27
2018-08-13T09:36:16.850Z,100110.38
2018-08-13T09:38:45.080Z,100119.53
2018-08-13T09:41:13.290Z,100114.11
2018-08-13T09:43:41.531Z,100124.50
2018-08-13T09:46:09.747Z,100127.16
2018-08-13T09:48:37.977Z,100123.80
2018-08-13T09:51:06.200Z,100117.65
2018-08-13T09:53:34.484Z,100130.92
2018-08-13T09:56:02.728Z,100138.91
2018-08-13T09:58:30.920Z,100138.31
2018-08-13T10:01:04.524Z,100136.38
2018-08-13T10:03:32.736Z,100136.61
2018-08-13T10:06:00.964Z,100134.01
2018-08-13T10:08:29.176Z,100128.05
2018-08-13T10:10:57.448Z,100135.08
2018-08-13T10:13:25.620Z,100127.47
2018-08-13T10:15:53.853Z,100127.80
2018-08-13T10:18:22.073Z,100121.67
2018-08-13T10:20:50.296Z,100113.19
2018-08-13T10:23:18.505Z,100113.08
2018-08-13T10:25:46.736Z,100104.77
2018-08-13T10:28:14.959Z,100090.25
2018-08-13T10:30:43.201Z,100082.17
2018-08-13T10:33:11.409Z,100092.77
2018-08-13T10:35:39.657Z,100089.32
2018-08-13T10:38:07.861Z,100089.98
2018-08-13T10:40:36.092Z,100093.02
2018-08-13T10:43:04.312Z,100088.92
2018-08-13T10:45:32.541Z,100087.70
2018-08-13T10:48:00.759Z,100086.45
2018-08-13T10:50:29.040Z,100079.08
2018-08-13T10:52:57.239Z,100076.44
2018-08-13T10:55:25.463Z,100072.02
2018-08-13T10:57:53.696Z,100078.98
2018-08-13T11:00:21.935Z,100079.73
2018-08-13T11:02:50.214Z,100070.34
2018-08-13T11:05:19.407Z,100073.95
2018-08-13T11:07:47.619Z,100071.25
2018-08-13T11:10:16.400Z,100071.89
2018-08-13T11:12:44.668Z,100071.83
2018-08-13T11:15:17.543Z,100076.20
2018-08-13T11:17:46.102Z,100069.09
2018-08-13T11:20:14.322Z,100068.96
2018-08-13T11:22:43.326Z,100065.77
2018-08-13T11:25:13.312Z,100067.22
2018-08-13T11:27:41.679Z,100066.31
2018-08-13T11:30:12.875Z,100053.94
2018-08-13T11:32:41.087Z,100045.90
2018-08-13T11:35:09.350Z,100060.27
2018-08-13T11:37:37.593Z,100080.44
2018-08-13T11:40:09.395Z,100072.48
2018-08-13T11:42:37.708Z,100076.83
2018-08-13T11:45:06.149Z,100070.02
2018-08-13T11:47:34.675Z,100072.67
2018-08-13T11:50:03.210Z,100071.08
2018-08-13T11:52:31.625Z,100060.67
2018-08-13T11:54:59.933Z,100059.81
2018-08-13T11:57:29.053Z,100067.58
2018-08-13T11:59:57.320Z,100062.94
2018-08-13T12:02:25.548Z,100045.88
2018-08-13T12:04:53.795Z,100037.66
2018-08-13T12:07:22.061Z,100048.46
2018-08-13T12:09:50.364Z,100049.54
2018-08-13T12:12:18.666Z,100042.70
2018-08-13T12:14:46.888Z,100038.13
2018-08-13T12:17:15.258Z,100047.61
2018-08-13T12:19:43.480Z,100044.04
2018-08-13T12:22:11.720Z,100035.58
2018-08-13T12:24:40.014Z,100030.37
2018-08-13T12:27:08.280Z,100029.45
2018-08-13T12:29:36.790Z,100029.07
2018-08-13T12:32:05.361Z,100020.57
2018-08-13T12:34:33.580Z,100015.58
2018-08-13T12:37:07.194Z,100020.62
2018-08-13T12:39:36.196Z,100010.70
2018-08-13T12:42:04.944Z,100013.55
2018-08-13T12:44:33.146Z,100009.16
2018-08-13T12:47:01.479Z,100008.09
2018-08-13T12:49:29.704Z,100015.83
2018-08-13T12:51:57.999Z,100017.97
2018-08-13T12:54:26.231Z,100010.25
2018-08-13T12:56:54.464Z,99993.04
2018-08-13T12:59:23.704Z,99996.05
2018-08-13T13:01:51.935Z,100001.57
2018-08-13T13:04:20.151Z,100002.92
2018-08-13T13:06:48.416Z,99991.22
2018-08-13T13:09:17.167Z,99992.87
2018-08-13T13:11:45.464Z,99995.38
2018-08-13T13:14:13.696Z,99995.52
2018-08-13T13:16:41.988Z,99986.73
2018-08-13T13:19:10.220Z,99980.88
2018-08-13T13:21:38.449Z,99980.34
2018-08-13T13:24:06.793Z,99972.74
2018-08-13T13:26:35.808Z,99973.41
2018-08-13T13:29:05.484Z,99972.39
2018-08-13T13:31:33.712Z,99974.26
2018-08-13T13:34:01.944Z,99975.77
2018-08-13T13:36:30.203Z,99971.92
2018-08-13T13:38:58.473Z,99971.73
2018-08-13T13:41:26.888Z,99972.58
2018-08-13T13:43:55.115Z,99962.19
2018-08-13T13:46:23.367Z,99964.05
2018-08-13T13:48:51.600Z,99958.86
2018-08-13T13:51:19.811Z,99966.89
2018-08-13T13:53:48.032Z,99966.18
2018-08-13T13:56:16.253Z,99966.09
2018-08-13T13:58:44.476Z,99959.43
2018-08-13T14:01:12.752Z,99953.22
2018-08-13T14:03:40.981Z,99959.23
2018-08-13T14:06:09.451Z,99953.73
2018-08-13T14:08:37.684Z,99953.55
2018-08-13T14:11:05.964Z,99955.63
2018-08-13T14:13:34.196Z,99966.00
2018-08-13T14:16:02.403Z,99965.19
2018-08-13T14:18:30.619Z,99962.28
2018-08-13T14:20:58.846Z,99958.89
2018-08-13T14:23:27.084Z,99963.05
2018-08-13T14:25:55.284Z,99962.74
2018-08-13T14:28:23.521Z,99959.50
2018-08-13T14:30:51.760Z,99972.88
2018-08-13T14:33:19.987Z,99968.74
2018-08-13T14:35:48.180Z,99973.84
2018-08-13T14:38:16.440Z,99975.05
2018-08-13T14:40:44.648Z,99973.42
2018-08-13T14:43:12.895Z,99976.01
2018-08-13T14:45:41.104Z,99983.02
2018-08-13T14:48:09.348Z,99979.62
2018-08-13T14:50:37.553Z,99996.75
2018-08-13T14:53:05.856Z,99992.38
2018-08-13T14:55:35.080Z,99985.37
2018-08-13T14:58:03.319Z,99981.34
2018-08-13T15:00:33.157Z,99978.95
2018-08-13T15:03:01.402Z,99975.63
2018-08-13T15:05:29.673Z,99968.06
2018-08-13T15:07:58.001Z,99970.30
2018-08-13T15:10:26.672Z,99977.30
2018-08-13T15:12:55.167Z,99971.13
2018-08-13T15:15:23.409Z,99979.20
2018-08-13T15:17:51.672Z,99976.34
2018-08-13T15:20:24.320Z,99973.06
2018-08-13T15:22:52.603Z,99972.73
2018-08-13T15:25:20.907Z,99966.95
2018-08-13T15:27:49.184Z,99967.53
2018-08-13T15:30:18.188Z,99978.56
2018-08-13T15:32:47.464Z,99975.50
2018-08-13T15:35:15.697Z,99979.13
2018-08-13T15:37:44.499Z,99975.55
2018-08-13T15:40:12.752Z,99966.95
2018-08-13T15:42:41.148Z,99972.50
2018-08-13T15:45:14.877Z,99979.70
2018-08-13T15:47:43.234Z,99983.88
2018-08-13T15:50:13.084Z,99996.09
2018-08-13T15:52:41.586Z,100003.51
2018-08-13T15:55:09.932Z,99998.72
2018-08-13T15:57:38.168Z,99984.78
2018-08-13T16:00:07.672Z,99978.72
2018-08-13T16:02:36.572Z,99969.81
2018-08-13T16:05:06.594Z,99967.06
2018-08-13T16:07:34.812Z,99981.09
2018-08-13T16:10:03.050Z,99986.44
2018-08-13T16:12:31.248Z,99987.14
2018-08-13T16:14:59.467Z,99978.47
2018-08-13T16:17:27.756Z,99986.33
2018-08-13T16:19:56.025Z,99982.91
2018-08-13T16:22:24.227Z,99976.13
2018-08-13T16:24:52.746Z,99976.52
2018-08-13T16:27:20.944Z,99974.63
2018-08-13T16:29:49.276Z,99966.37
2018-08-13T16:32:17.476Z,99962.78
2018-08-13T16:34:45.696Z,99958.69
2018-08-13T16:37:13.935Z,99953.66
2018-08-13T16:39:42.173Z,99954.55
2018-08-13T16:42:10.400Z,99945.63
2018-08-13T16:44:39.542Z,99949.30
2018-08-13T16:47:07.789Z,99943.06
2018-08-13T16:49:36.017Z,99945.13
2018-08-13T16:52:04.320Z,99944.97
2018-08-13T16:54:32.548Z,99943.94
2018-08-13T16:57:00.791Z,99946.65
2018-08-13T16:59:29.028Z,99945.78
2018-08-13T17:01:57.247Z,99934.99
2018-08-13T17:04:26.548Z,99942.98
2018-08-13T17:06:54.753Z,99945.89
2018-08-13T17:09:22.975Z,99943.65
2018-08-13T17:11:51.192Z,99947.19
2018-08-13T17:14:19.670Z,99948.21
2018-08-13T17:16:48.288Z,99952.30
2018-08-13T17:19:16.513Z,99950.81
2018-08-13T17:21:44.707Z,99937.16
2018-08-13T17:24:14.272Z,99944.06
2018-08-13T17:26:42.844Z,99935.66
2018-08-13T17:29:11.141Z,99938.34
2018-08-13T17:31:39.599Z,99938.08
2018-08-13T17:34:08.732Z,99938.45
2018-08-13T17:36:38.275Z,99943.34
2018-08-13T17:39:10.028Z,99944.70
2018-08-13T17:41:38.693Z,99948.41
2018-08-13T17:44:06.932Z,99949.84
2018-08-13T17:46:35.216Z,99957.39
2018-08-13T17:49:03.792Z,99954.84
2018-08-13T17:51:32.124Z,99954.97
2018-08-13T17:54:00.372Z,99960.18
2018-08-13T17:56:28.660Z,99958.59
2018-08-13T17:58:56.939Z,99968.27
2018-08-13T18:01:25.399Z,99966.46
2018-08-13T18:03:54.108Z,99966.06
2018-08-13T18:06:22.496Z,99970.20
2018-08-13T18:08:50.897Z,99968.70
2018-08-13T18:11:19.269Z,99968.20
2018-08-13T18:13:47.473Z,99972.92
2018-08-13T18:16:15.707Z,99979.06
2018-08-13T18:18:43.934Z,99977.69
2018-08-13T18:21:12.181Z,99983.69
2018-08-13T18:23:40.496Z,99986.85
2018-08-13T18:26:09.557Z,99978.28
2018-08-13T18:28:37.888Z,99980.29
2018-08-13T18:31:06.627Z,99980.98
2018-08-13T18:33:34.824Z,99991.14
2018-08-13T18:36:03.175Z,99972.78
2018-08-13T18:38:31.480Z,99985.93
2018-08-13T18:40:59.700Z,99982.73
2018-08-13T18:43:27.917Z,99994.14
2018-08-13T18:45:56.751Z,99999.39
2018-08-13T18:48:25.026Z,100000.74
2018-08-13T18:50:53.620Z,99998.23
2018-08-13T18:53:23.158Z,99999.63
2018-08-13T18:55:51.527Z,100011.74
2018-08-13T18:58:19.793Z,100016.68
2018-08-13T19:00:51.720Z,100015.17
2018-08-13T19:03:20.105Z,100021.74
2018-08-13T19:05:48.387Z,100014.72
2018-08-13T19:08:17.958Z,100016.52
2018-08-13T19:10:46.329Z,100026.15
2018-08-13T19:13:14.554Z,100033.50
2018-08-13T19:15:42.829Z,100039.78
2018-08-13T19:18:11.127Z,100042.25
2018-08-13T19:20:39.468Z,100047.37
2018-08-13T19:23:07.687Z,100047.59
2018-08-13T19:25:35.933Z,100058.17
2018-08-13T19:28:06.052Z,100061.30
2018-08-13T19:30:34.280Z,100064.27
2018-08-13T19:33:02.573Z,100069.80
2018-08-13T19:35:30.835Z,100068.28
2018-08-13T19:37:59.057Z,100063.20
2018-08-13T19:40:28.227Z,100077.77
2018-08-13T19:42:56.464Z,100071.98
2018-08-13T19:45:24.694Z,100079.23
2018-08-13T19:47:53.629Z,100080.49
2018-08-13T19:50:21.832Z,100080.98
2018-08-13T19:52:51.502Z,100081.67
2018-08-13T19:55:20.266Z,100080.98
2018-08-13T19:57:48.504Z,100090.80
2018-08-13T20:00:23.366Z,100096.92
2018-08-13T20:02:52.246Z,100101.02
2018-08-13T20:05:22.630Z,100101.43
2018-08-13T20:07:51.366Z,100098.95
2018-08-13T20:10:19.712Z,100103.08
2018-08-13T20:12:48.441Z,100102.66
2018-08-13T20:15:16.682Z,100106.23
2018-08-13T20:17:45.268Z,100103.43
2018-08-13T20:20:15.853Z,100107.98
2018-08-13T20:22:45.917Z,100103.02
2018-08-13T20:25:15.365Z,100103.31
2018-08-13T20:27:43.892Z,100100.23
2018-08-13T20:30:14.207Z,100110.47
2018-08-13T20:32:42.905Z,100102.85
2018-08-13T20:35:11.136Z,100105.06
2018-08-13T20:37:39.591Z,100115.36
2018-08-13T20:40:09.985Z,100108.75
2018-08-13T20:42:38.880Z,100108.52
2018-08-13T20:45:09.369Z,100109.02
2018-08-13T20:47:37.634Z,100107.98
2018-08-13T20:50:08.826Z,100110.20
2018-08-13T20:52:37.130Z,100112.16
2018-08-13T20:55:07.671Z,100122.02
2018-08-13T20:57:35.959Z,100117.97
2018-08-13T21:00:05.534Z,100116.38
2018-08-13T21:02:33.824Z,100122.72
2018-08-13T21:05:02.082Z,100119.97
2018-08-13T21:07:30.369Z,100122.76
2018-08-13T21:09:58.627Z,100120.17
2018-08-13T21:12:26.929Z,100120.30
2018-08-13T21:14:55.276Z,100127.50
2018-08-13T21:17:23.504Z,100122.05
2018-08-13T21:19:51.741Z,100130.55
2018-08-13T21:22:19.994Z,100133.00
2018-08-13T21:24:48.336Z,100134.73
2018-08-13T21:27:16.596Z,100136.85
2018-08-13T21:29:44.833Z,100137.67
2018-08-13T21:32:13.106Z,100144.36
2018-08-13T21:34:41.370Z,100138.42
2018-08-13T21:37:09.750Z,100152.45
2018-08-13T21:39:38.013Z,100148.06
2018-08-13T21:42:06.255Z,100150.27
2018-08-13T21:44:34.480Z,100149.58
2018-08-13T21:47:02.756Z,100148.59
2018-08-13T21:49:31.000Z,100150.30
2018-08-13T21:51:59.260Z,100156.16
2018-08-13T21:54:27.520Z,100153.10
2018-08-13T21:56:55.746Z,100153.13
2018-08-13T21:59:24.033Z,100156.61
2018-08-13T22:01:54.183Z,100158.79
2018-08-13T22:04:22.645Z,100159.49
2018-08-13T22:06:50.881Z,100158.48
2018-08-13T22:09:19.155Z,100164.28
2018-08-13T22:11:47.389Z,100163.84
2018-08-13T22:14:15.708Z,100173.77
2018-08-13T22:16:43.936Z,100171.17
2018-08-13T22:19:12.179Z,100170.73
2018-08-13T22:21:40.400Z,100163.94
2018-08-13T22:24:20.085Z,100172.00
2018-08-13T22:26:48.312Z,100174.59
2018-08-13T22:29:16.574Z,100170.84
2018-08-13T22:31:44.935Z,100169.00
2018-08-13T22:34:13.192Z,100177.31
2018-08-13T22:36:41.442Z,100182.32
2018-08-13T22:39:09.785Z,100184.68
2018-08-13T22:41:38.280Z,100187.03
2018-08-13T22:44:06.755Z,100182.65
2018-08-13T22:46:35.237Z,100191.06
2018-08-13T22:49:03.559Z,100193.13
2018-08-13T22:51:31.784Z,100192.56
2018-08-13T22:54:00.032Z,100201.80
2018-08-13T22:56:28.289Z,100198.73
2018-08-13T22:58:56.542Z,100200.86
2018-08-13T23:01:24.785Z,100201.27
2018-08-13T23:03:53.356Z,100204.83
2018-08-13T23:06:21.608Z,100205.80
2018-08-13T23:08:49.860Z,100206.95
2018-08-13T23:11:18.096Z,100207.30
2018-08-13T23:13:46.336Z,100207.74
2018-08-13T23:16:14.552Z,100200.89
2018-08-13T23:18:42.777Z,100205.83
2018-08-13T23:21:11.001Z,100213.27
2018-08-13T23:23:39.235Z,100215.38
2018-08-13T23:26:07.466Z,100209.16
2018-08-13T23:28:35.725Z,100220.41
2018-08-13T23:31:03.976Z,100217.30
2018-08-13T23:33:32.208Z,100221.27
2018-08-13T23:36:00.428Z,100222.67
2018-08-13T23:38:28.664Z,100226.97
2018-08-13T23:40:56.919Z,100224.55
2018-08-13T23:43:25.152Z,100234.16
2018-08-13T23:45:53.364Z,100217.20
2018-08-13T23:48:21.595Z,100236.03
2018-08-13T23:50:49.895Z,100221.95
2018-08-13T23:53:18.118Z,100239.69
2018-08-13T23:55:46.358Z,100230.69
2018-08-13T23:58:14.785Z,100230.91
